Time;durP1;ratioP1;P1;durP2;ratioP2;P2;SDS_P1;SDS_P2;PMS_P1;PMS_P2;Temp;Humidity;BMP_temperature;BMP_pressure;BME280_temperature;BME280_humidity;BME280_pressure;Samples;Min_cycle;Max_cycle;Signal;HPM_P1;HPM_P2
2021/08/04 00:02:04;;;;;;;1.60;1.35;;;16.40;99.90;;;;;;5072549;28;20470;-75
2021/08/04 00:04:30;;;;;;;1.55;1.33;;;16.40;99.90;;;;;;5066096;28;20033;-74
2021/08/04 00:06:55;;;;;;;2.20;1.50;;;16.40;99.90;;;;;;5052127;28;20029;-75
2021/08/04 00:09:21;;;;;;;2.30;1.58;;;16.30;99.90;;;;;;5052068;28;20433;-75
2021/08/04 00:11:46;;;;;;;1.70;1.50;;;16.30;99.90;;;;;;5051976;28;20044;-75
2021/08/04 00:14:12;;;;;;;4.07;1.25;;;16.30;99.90;;;;;;5052378;28;20033;-74
2021/08/04 00:16:38;;;;;;;1.42;1.30;;;16.40;99.90;;;;;;5052389;28;20130;-74
2021/08/04 00:19:03;;;;;;;1.58;1.42;;;16.30;99.90;;;;;;5041782;28;20143;-72
2021/08/04 00:21:30;;;;;;;1.58;1.48;;;16.30;99.90;;;;;;5056554;28;20018;-74
2021/08/04 00:23:56;;;;;;;2.53;1.80;;;16.20;99.90;;;;;;5043616;28;20496;-74
2021/08/04 00:26:22;;;;;;;1.73;1.63;;;16.20;99.90;;;;;;5034929;28;20029;-75
2021/08/04 00:28:47;;;;;;;2.75;1.80;;;16.20;99.90;;;;;;5015906;28;20044;-75
2021/08/04 00:31:13;;;;;;;2.25;1.65;;;16.10;99.90;;;;;;5014626;28;20036;-75
2021/08/04 00:33:38;;;;;;;1.55;1.40;;;16.10;99.90;;;;;;5032351;28;20025;-75
2021/08/04 00:36:05;;;;;;;2.88;1.65;;;16.00;99.90;;;;;;5031730;28;20049;-74
2021/08/04 00:38:30;;;;;;;2.55;1.63;;;16.00;99.90;;;;;;5033328;28;20500;-74
2021/08/04 00:40:56;;;;;;;6.43;1.38;;;16.00;99.90;;;;;;5035423;28;20049;-75
2021/08/04 00:43:21;;;;;;;1.88;1.42;;;16.00;99.90;;;;;;5035730;28;20026;-75
2021/08/04 00:45:47;;;;;;;3.17;1.55;;;16.00;99.90;;;;;;5052359;28;20065;-74
2021/08/04 00:48:13;;;;;;;2.13;1.83;;;16.00;99.90;;;;;;5056024;28;20031;-75
2021/08/04 00:50:38;;;;;;;1.40;1.30;;;15.90;99.90;;;;;;5055367;28;20029;-74
2021/08/04 00:53:18;;;;;;;2.30;1.77;;;16.00;99.90;;;;;;5055564;28;20025;-74
2021/08/04 00:55:44;;;;;;;4.63;1.58;;;16.00;99.90;;;;;;5037558;28;20022;-75
2021/08/04 00:58:10;;;;;;;4.35;1.60;;;16.00;99.90;;;;;;5055077;28;20488;-75
2021/08/04 01:00:40;;;;;;;1.48;1.38;;;15.90;99.90;;;;;;5055584;28;20202;-75
2021/08/04 01:03:08;;;;;;;1.93;1.17;;;16.00;99.90;;;;;;5055350;28;20219;-75
2021/08/04 01:05:43;;;;;;;3.70;1.55;;;16.00;99.90;;;;;;5063543;28;20256;-73
2021/08/04 01:08:14;;;;;;;2.28;1.65;;;16.00;99.90;;;;;;5042622;28;20071;-75
2021/08/04 01:10:42;;;;;;;;;;;16.00;99.90;;;;;;5056376;28;20047;-75
2021/08/04 01:13:15;;;;;;;1.42;1.20;;;16.00;99.90;;;;;;5055527;28;19916;-75
2021/08/04 01:15:49;;;;;;;3.08;1.67;;;16.00;99.90;;;;;;5057556;28;20021;-74
2021/08/04 01:18:23;;;;;;;1.98;1.63;;;15.90;99.90;;;;;;5078845;28;20061;-74
2021/08/04 01:20:49;;;;;;;2.50;1.60;;;16.00;99.90;;;;;;5077638;28;20017;-74
2021/08/04 01:23:18;;;;;;;2.78;1.48;;;16.00;99.90;;;;;;5077192;28;20033;-73
2021/08/04 01:25:54;;;;;;;2.05;1.58;;;16.00;99.90;;;;;;5049078;28;20075;-75
2021/08/04 01:28:47;;;;;;;3.47;1.60;;;16.00;99.90;;;;;;5055656;28;20508;-76
2021/08/04 01:31:17;;;;;;;1.73;1.52;;;16.00;99.90;;;;;;5038519;28;20033;-76
2021/08/04 01:33:45;;;;;;;2.45;1.50;;;15.90;99.90;;;;;;5055083;28;20025;-76
2021/08/04 01:36:12;;;;;;;1.95;1.67;;;16.00;99.90;;;;;;5054956;28;20025;-76
2021/08/04 01:38:40;;;;;;;2.05;1.50;;;15.90;99.90;;;;;;5054003;28;20477;-76
2021/08/04 01:41:07;;;;;;;1.90;1.52;;;15.90;99.90;;;;;;5036452;28;20029;-76
2021/08/04 01:43:34;;;;;;;1.65;1.50;;;15.80;99.90;;;;;;5036486;28;20032;-76
2021/08/04 01:46:01;;;;;;;1.83;1.30;;;15.90;99.90;;;;;;5059842;28;20059;-75
2021/08/04 01:48:28;;;;;;;1.55;1.35;;;15.90;99.90;;;;;;5054989;28;20045;-76
2021/08/04 01:50:57;;;;;;;2.55;1.40;;;16.00;99.90;;;;;;5053960;28;20057;-76
2021/08/04 01:53:24;;;;;;;1.50;1.40;;;15.90;99.90;;;;;;5054007;28;20538;-76
2021/08/04 01:55:50;;;;;;;1.83;1.40;;;16.00;99.90;;;;;;5054201;28;20449;-76
2021/08/04 01:58:16;;;;;;;3.80;1.63;;;15.90;99.90;;;;;;5036036;28;20024;-76
2021/08/04 02:00:41;;;;;;;6.00;1.60;;;15.90;99.90;;;;;;5054264;28;20103;-76
2021/08/04 02:03:07;;;;;;;1.50;1.40;;;15.90;99.90;;;;;;5053877;28;20063;-76
2021/08/04 02:05:33;;;;;;;1.35;1.25;;;15.90;99.90;;;;;;5036456;28;20029;-76
2021/08/04 02:08:13;;;;;;;1.80;1.45;;;15.90;99.90;;;;;;5036394;28;20033;-76
2021/08/04 02:10:58;;;;;;;1.80;1.27;;;15.90;99.90;;;;;;5053927;28;20103;-77
2021/08/04 02:13:55;;;;;;;3.17;2.25;;;15.90;99.90;;;;;;5053980;28;20032;-76
2021/08/04 02:16:47;;;;;;;1.65;1.15;;;15.90;99.90;;;;;;5053844;28;20531;-76
2021/08/04 02:19:29;;;;;;;2.22;1.15;;;15.90;99.90;;;;;;5029916;28;20037;-76
2021/08/04 02:22:05;;;;;;;1.83;1.55;;;15.80;99.90;;;;;;5016254;28;20076;-76
2021/08/04 02:24:34;;;;;;;4.72;1.60;;;15.80;99.90;;;;;;5033523;28;20018;-76
2021/08/04 02:27:02;;;;;;;2.78;1.38;;;15.80;99.90;;;;;;5016425;28;20033;-75
2021/08/04 02:29:35;;;;;;;2.60;2.10;;;15.80;99.90;;;;;;5038069;28;20052;-75
2021/08/04 02:32:01;;;;;;;1.60;1.50;;;15.80;99.90;;;;;;5038590;28;20026;-75
2021/08/04 02:34:28;;;;;;;2.97;1.30;;;15.80;99.90;;;;;;5038539;28;20492;-75
2021/08/04 02:36:54;;;;;;;1.98;1.33;;;15.80;99.90;;;;;;5019026;28;20029;-75
2021/08/04 02:39:20;;;;;;;3.17;1.65;;;15.80;99.90;;;;;;5033336;28;20025;-76
2021/08/04 02:41:46;;;;;;;2.90;1.63;;;15.90;99.90;;;;;;5033674;28;20071;-75
2021/08/04 02:44:15;;;;;;;1.52;1.42;;;15.80;99.90;;;;;;5019785;28;20029;-75
2021/08/04 02:46:44;;;;;;;2.55;1.52;;;15.80;99.90;;;;;;5057530;28;20036;-75
2021/08/04 02:49:11;;;;;;;2.08;1.70;;;15.70;99.90;;;;;;5041932;28;20051;-76
2021/08/04 02:51:40;;;;;;;3.15;1.50;;;15.70;99.90;;;;;;5053912;28;20477;-75
2021/08/04 02:54:07;;;;;;;2.13;1.60;;;15.80;99.90;;;;;;5052916;28;20408;-75
2021/08/04 02:56:32;;;;;;;3.05;1.13;;;15.80;99.90;;;;;;5053237;28;20504;-74
2021/08/04 02:58:58;;;;;;;3.03;1.40;;;15.70;99.90;;;;;;5035069;28;20025;-76
2021/08/04 03:01:24;;;;;;;2.00;1.27;;;15.70;99.90;;;;;;5052203;28;20059;-76
2021/08/04 03:03:49;;;;;;;1.90;1.75;;;15.80;99.90;;;;;;5035097;28;20029;-76
2021/08/04 03:06:15;;;;;;;4.00;1.30;;;15.80;99.90;;;;;;5060009;28;20033;-75
2021/08/04 03:08:40;;;;;;;3.25;1.73;;;15.70;99.90;;;;;;5053775;28;20060;-75
2021/08/04 03:11:09;;;;;;;1.48;1.38;;;15.70;99.90;;;;;;5052694;28;20036;-76
2021/08/04 03:13:35;;;;;;;2.90;1.50;;;15.70;99.90;;;;;;5035001;28;20064;-75
2021/08/04 03:16:02;;;;;;;1.55;1.27;;;15.60;99.90;;;;;;5052472;28;20445;-76
2021/08/04 03:18:27;;;;;;;1.90;1.45;;;15.60;99.90;;;;;;5064555;28;20027;-75
2021/08/04 03:20:53;;;;;;;3.42;1.50;;;15.70;99.90;;;;;;5077000;28;20010;-75
2021/08/04 03:23:19;;;;;;;2.45;1.75;;;15.80;99.90;;;;;;5060022;28;20035;-76
2021/08/04 03:25:45;;;;;;;5.72;1.77;;;15.90;99.90;;;;;;5053185;28;20032;-75
2021/08/04 03:28:10;;;;;;;1.40;1.30;;;16.00;99.90;;;;;;5052602;28;20082;-76
2021/08/04 03:30:36;;;;;;;2.20;1.70;;;15.80;99.90;;;;;;5052711;28;20052;-74
2021/08/04 03:33:01;;;;;;;2.38;1.67;;;15.70;99.90;;;;;;5052594;28;20060;-75
2021/08/04 03:35:27;;;;;;;1.60;1.27;;;15.70;99.90;;;;;;5052650;28;20025;-75
2021/08/04 03:37:53;;;;;;;2.88;1.50;;;15.70;99.90;;;;;;5052497;28;20048;-76
2021/08/04 03:40:18;;;;;;;4.10;1.92;;;15.60;99.90;;;;;;5052635;28;20017;-75
2021/08/04 03:42:44;;;;;;;2.20;1.65;;;15.60;99.90;;;;;;5052046;28;20041;-75
2021/08/04 03:45:10;;;;;;;2.75;1.67;;;15.60;99.90;;;;;;5053371;28;20142;-76
2021/08/04 03:47:36;;;;;;;3.47;1.92;;;15.50;99.90;;;;;;5052706;28;20150;-75
2021/08/04 03:50:02;;;;;;;2.60;1.52;;;15.50;99.90;;;;;;5053170;28;20476;-75
2021/08/04 03:52:28;;;;;;;1.55;1.42;;;15.50;99.90;;;;;;5034265;28;20401;-75
2021/08/04 03:54:53;;;;;;;2.10;1.42;;;15.50;99.90;;;;;;5052021;28;20021;-75
2021/08/04 03:57:19;;;;;;;3.03;1.77;;;15.50;99.90;;;;;;5051927;28;20485;-77
2021/08/04 03:59:44;;;;;;;4.40;1.77;;;15.50;99.90;;;;;;5052085;28;20477;-77
2021/08/04 04:02:10;;;;;;;2.03;1.77;;;15.50;99.90;;;;;;5053101;28;20090;-76
2021/08/04 04:04:36;;;;;;;1.75;1.65;;;15.40;99.90;;;;;;5052552;28;20339;-76
2021/08/04 04:07:02;;;;;;;2.67;1.50;;;15.40;99.90;;;;;;5052358;28;20473;-75
2021/08/04 04:09:29;;;;;;;4.03;2.28;;;15.50;99.90;;;;;;5051837;28;20036;-75
2021/08/04 04:11:55;;;;;;;2.35;1.90;;;15.50;99.90;;;;;;5052313;28;20017;-76
2021/08/04 04:14:21;;;;;;;1.63;1.35;;;15.40;99.90;;;;;;5056126;28;20032;-76
2021/08/04 04:16:46;;;;;;;7.80;2.78;;;15.50;99.90;;;;;;5058336;28;20033;-75
2021/08/04 04:19:12;;;;;;;2.85;1.75;;;15.60;99.90;;;;;;5058180;28;20089;-75
2021/08/04 04:21:38;;;;;;;2.75;1.85;;;15.50;99.90;;;;;;5056255;28;20040;-75
2021/08/04 04:24:03;;;;;;;4.05;2.00;;;15.50;99.90;;;;;;5058242;28;20040;-75
2021/08/04 04:26:30;;;;;;;4.95;2.00;;;15.40;99.90;;;;;;5056167;28;20130;-75
2021/08/04 04:28:56;;;;;;;4.57;1.98;;;15.50;99.90;;;;;;5056067;28;20029;-75
2021/08/04 04:31:21;;;;;;;3.78;1.60;;;15.60;99.90;;;;;;5038361;28;20515;-75
2021/08/04 04:33:47;;;;;;;3.47;2.40;;;15.60;99.90;;;;;;5055294;28;20028;-76
2021/08/04 04:36:13;;;;;;;3.40;1.85;;;15.60;99.90;;;;;;5055508;28;20017;-76
2021/08/04 04:38:38;;;;;;;3.28;1.98;;;15.60;99.90;;;;;;5055927;28;20028;-77
2021/08/04 04:41:04;;;;;;;1.90;1.70;;;15.50;99.90;;;;;;5037650;28;20237;-75
2021/08/04 04:43:29;;;;;;;3.90;1.75;;;15.50;99.90;;;;;;5069919;28;20446;-75
2021/08/04 04:45:55;;;;;;;5.32;2.95;;;15.50;99.90;;;;;;5073447;28;20044;-75
2021/08/04 04:48:20;;;;;;;2.20;1.95;;;15.50;99.90;;;;;;5072655;28;20029;-75
2021/08/04 04:50:46;;;;;;;2.65;1.60;;;15.50;99.90;;;;;;5070734;28;20063;-76
2021/08/04 04:53:11;;;;;;;5.97;3.63;;;15.80;99.90;;;;;;5068758;28;20028;-75
2021/08/04 04:55:37;;;;;;;2.05;1.83;;;15.80;99.90;;;;;;5060681;28;20021;-76
2021/08/04 04:58:03;;;;;;;6.05;2.28;;;15.80;99.90;;;;;;5055817;28;20021;-76
2021/08/04 05:00:28;;;;;;;2.10;1.90;;;15.80;99.90;;;;;;5055478;28;20014;-77
2021/08/04 05:02:54;;;;;;;3.67;2.22;;;15.80;99.90;;;;;;5054825;28;20021;-76
2021/08/04 05:05:19;;;;;;;3.38;1.73;;;15.80;99.90;;;;;;5056412;28;20075;-75
2021/08/04 05:07:45;;;;;;;4.50;2.38;;;15.90;99.90;;;;;;5041756;28;20025;-76
2021/08/04 05:10:11;;;;;;;3.88;1.92;;;16.00;99.90;;;;;;5037044;28;20037;-75
2021/08/04 05:12:37;;;;;;;2.55;2.00;;;16.10;99.90;;;;;;5057522;28;20061;-76
2021/08/04 05:15:03;;;;;;;5.35;1.80;;;16.30;99.90;;;;;;5064671;28;20040;-74
2021/08/04 05:17:29;;;;;;;5.68;1.85;;;16.60;99.90;;;;;;5067387;28;20080;-74
2021/08/04 05:19:55;;;;;;;3.78;2.47;;;16.90;99.90;;;;;;5065913;28;20032;-75
2021/08/04 05:22:20;;;;;;;4.10;1.88;;;17.30;99.90;;;;;;5054454;28;20105;-76
2021/08/04 05:24:46;;;;;;;2.35;1.63;;;17.50;99.90;;;;;;5053998;28;20456;-77
2021/08/04 05:27:11;;;;;;;3.45;2.35;;;17.40;99.90;;;;;;5054534;28;20444;-77
2021/08/04 05:29:37;;;;;;;2.15;1.23;;;17.50;99.90;;;;;;5054404;28;20069;-77
2021/08/04 05:32:03;;;;;;;3.55;1.98;;;17.50;99.90;;;;;;5054639;28;20087;-76
2021/08/04 05:34:29;;;;;;;2.90;1.45;;;18.20;99.90;;;;;;5055361;28;20025;-76
2021/08/04 05:36:54;;;;;;;4.13;2.17;;;18.90;99.90;;;;;;5054638;28;20107;-76
2021/08/04 05:39:20;;;;;;;2.97;1.65;;;19.90;99.90;;;;;;5055010;28;20118;-76
2021/08/04 05:41:45;;;;;;;2.67;1.65;;;20.50;99.90;;;;;;5055122;28;20013;-76
2021/08/04 05:44:11;;;;;;;2.30;1.65;;;20.60;99.90;;;;;;5037452;28;20118;-76
2021/08/04 05:46:36;;;;;;;4.55;1.45;;;20.10;99.90;;;;;;5036790;28;20021;-76
2021/08/04 05:49:02;;;;;;;1.30;1.20;;;19.40;99.90;;;;;;5059020;28;20451;-76
2021/08/04 05:51:27;;;;;;;3.47;1.63;;;19.10;99.90;;;;;;5074875;28;20016;-76
2021/08/04 05:53:53;;;;;;;5.93;1.38;;;18.80;99.90;;;;;;5074535;28;20028;-76
2021/08/04 05:56:19;;;;;;;2.03;1.40;;;18.60;99.90;;;;;;5074595;28;20020;-76
2021/08/04 05:58:44;;;;;;;1.33;1.23;;;18.30;99.90;;;;;;5074725;28;20055;-77
2021/08/04 06:01:10;;;;;;;3.40;1.60;;;18.20;99.90;;;;;;5075406;28;20076;-76
2021/08/04 06:03:36;;;;;;;1.75;1.20;;;18.10;99.90;;;;;;5075015;28;20374;-77
2021/08/04 06:06:02;;;;;;;2.90;2.17;;;18.10;99.90;;;;;;5074374;28;20024;-76
2021/08/04 06:08:29;;;;;;;3.85;2.10;;;18.10;99.90;;;;;;5066634;28;20029;-77
2021/08/04 06:10:55;;;;;;;1.92;1.50;;;18.20;99.90;;;;;;5053574;28;20056;-76
2021/08/04 06:13:20;;;;;;;3.15;1.70;;;18.20;99.90;;;;;;5055117;28;20053;-76
2021/08/04 06:15:46;;;;;;;2.45;1.40;;;18.30;99.90;;;;;;5054476;28;20448;-76
2021/08/04 06:18:12;;;;;;;2.03;1.33;;;18.50;99.90;;;;;;5059930;28;20047;-75
2021/08/04 06:20:37;;;;;;;2.83;1.15;;;18.60;99.90;;;;;;5058258;28;20382;-75
2021/08/04 06:23:03;;;;;;;2.67;1.13;;;18.70;99.90;;;;;;5035517;28;20104;-75
2021/08/04 06:25:29;;;;;;;2.08;1.55;;;18.80;99.90;;;;;;5035003;28;20103;-76
2021/08/04 06:27:54;;;;;;;1.75;1.40;;;18.90;99.90;;;;;;5035396;28;20083;-75
2021/08/04 06:30:20;;;;;;;2.15;1.38;;;18.90;99.90;;;;;;5034476;28;20032;-77
2021/08/04 06:32:46;;;;;;;3.28;1.55;;;19.00;99.90;;;;;;5016666;28;20203;-76
2021/08/04 06:35:12;;;;;;;5.40;1.70;;;19.90;99.90;;;;;;5020392;28;20033;-75
2021/08/04 06:37:37;;;;;;;5.25;1.73;;;19.70;99.90;;;;;;5017463;28;20029;-76
2021/08/04 06:40:04;;;;;;;2.75;1.40;;;19.60;99.90;;;;;;5035355;28;20350;-76
2021/08/04 06:42:30;;;;;;;1.73;1.40;;;19.40;99.90;;;;;;5034134;28;20026;-76
2021/08/04 06:44:55;;;;;;;4.05;1.77;;;19.20;99.90;;;;;;5043788;28;20044;-77
2021/08/04 06:47:21;;;;;;;3.80;1.50;;;19.10;99.90;;;;;;5030328;28;20060;-77
2021/08/04 06:49:46;;;;;;;6.68;1.70;;;19.10;99.90;;;;;;5016558;28;20033;-76
2021/08/04 06:52:12;;;;;;;2.95;1.42;;;18.90;99.90;;;;;;5033795;28;20453;-76
2021/08/04 06:54:38;;;;;;;2.17;1.38;;;18.90;99.90;;;;;;5040846;28;20029;-75
2021/08/04 06:57:04;;;;;;;2.00;1.48;;;18.70;99.90;;;;;;5037078;28;20041;-75
2021/08/04 06:59:29;;;;;;;3.35;1.80;;;18.60;99.90;;;;;;5045304;28;20041;-75
2021/08/04 07:01:55;;;;;;;2.45;1.77;;;18.60;99.90;;;;;;5037612;28;20389;-75
2021/08/04 07:04:21;;;;;;;2.05;1.60;;;18.60;99.90;;;;;;5048974;28;20104;-73
2021/08/04 07:07:04;;;;;;;5.15;1.75;;;18.80;99.90;;;;;;5041217;28;20037;-75
2021/08/04 07:09:34;;;;;;;1.50;1.40;;;18.90;99.90;;;;;;5035311;28;20458;-76
2021/08/04 07:12:00;;;;;;;1.65;1.40;;;19.00;99.90;;;;;;5034810;28;20085;-76
2021/08/04 07:14:26;;;;;;;1.77;1.30;;;19.00;99.90;;;;;;5033707;28;20033;-75
2021/08/04 07:16:52;;;;;;;3.25;1.45;;;19.20;99.90;;;;;;5036079;28;20035;-76
2021/08/04 07:19:17;;;;;;;2.67;1.42;;;19.10;99.90;;;;;;5053942;28;20021;-76
2021/08/04 07:21:44;;;;;;;1.30;1.20;;;19.30;99.90;;;;;;5053948;28;20029;-76
2021/08/04 07:24:10;;;;;;;2.63;1.25;;;19.20;99.90;;;;;;5035720;28;20423;-76
2021/08/04 07:26:38;;;;;;;1.65;1.55;;;19.60;99.90;;;;;;5053553;28;20048;-76
2021/08/04 07:29:04;;;;;;;1.65;1.20;;;19.60;99.90;;;;;;5053883;28;20115;-76
2021/08/04 07:31:30;;;;;;;1.80;1.23;;;19.60;99.90;;;;;;5053600;28;20029;-75
2021/08/04 07:33:56;;;;;;;1.35;1.25;;;19.50;99.90;;;;;;5053638;28;20082;-75
2021/08/04 07:36:21;;;;;;;1.10;1.00;;;19.60;99.90;;;;;;5048901;28;20088;-75
2021/08/04 07:38:47;;;;;;;1.67;1.23;;;19.60;99.90;;;;;;5034263;28;20032;-73
2021/08/04 07:41:13;;;;;;;2.50;1.15;;;19.50;99.90;;;;;;5033935;28;20026;-74
2021/08/04 07:43:39;;;;;;;1.77;1.52;;;19.20;99.90;;;;;;5033594;28;20080;-74
2021/08/04 07:46:04;;;;;;;1.75;1.65;;;19.20;99.90;;;;;;5034922;28;20024;-74
2021/08/04 07:48:30;;;;;;;1.45;1.15;;;19.40;99.90;;;;;;5032698;28;20481;-75
2021/08/04 07:50:56;;;;;;;1.55;1.13;;;19.60;99.90;;;;;;5021879;28;20036;-72
2021/08/04 07:53:22;;;;;;;1.35;1.13;;;19.40;99.90;;;;;;5035094;28;20127;-76
2021/08/04 07:55:48;;;;;;;3.25;1.42;;;19.60;99.90;;;;;;5033715;28;20025;-73
2021/08/04 07:58:14;;;;;;;1.30;1.20;;;19.30;99.90;;;;;;5016356;28;20068;-73
2021/08/04 08:00:40;;;;;;;1.75;1.33;;;19.60;99.90;;;;;;5033640;28;20072;-72
2021/08/04 08:03:05;;;;;;;1.30;1.20;;;19.70;99.90;;;;;;5031982;28;20553;-73
2021/08/04 08:05:31;;;;;;;2.95;1.33;;;19.60;99.90;;;;;;5031289;28;20045;-71
2021/08/04 08:08:03;;;;;;;1.63;1.25;;;19.90;99.90;;;;;;5034366;28;20052;-71
2021/08/04 08:10:29;;;;;;;1.88;1.50;;;20.50;99.90;;;;;;5038103;28;20028;-70
2021/08/04 08:12:55;;;;;;;2.75;1.45;;;21.00;99.90;;;;;;5037686;28;20029;-71
2021/08/04 08:15:21;;;;;;;1.90;0.98;;;21.20;99.90;;;;;;5041561;28;20522;-71
2021/08/04 08:17:47;;;;;;;2.53;1.27;;;21.40;99.90;;;;;;5044820;28;20046;-71
2021/08/04 08:20:13;;;;;;;1.17;0.88;;;20.90;99.90;;;;;;5033528;28;20021;-72
2021/08/04 08:22:38;;;;;;;2.28;1.33;;;21.00;99.90;;;;;;5032854;28;20374;-72
2021/08/04 08:25:06;;;;;;;4.30;1.63;;;21.20;99.90;;;;;;5032774;28;20059;-70
2021/08/04 08:27:32;;;;;;;1.55;1.40;;;21.30;99.90;;;;;;5014576;28;20025;-72
2021/08/04 08:29:57;;;;;;;2.15;1.40;;;20.70;99.90;;;;;;5033101;28;20487;-71
2021/08/04 08:32:26;;;;;;;2.58;1.70;;;21.00;99.90;;;;;;5032739;28;20035;-72
2021/08/04 08:34:52;;;;;;;2.97;1.65;;;21.00;99.90;;;;;;5034166;28;20024;-71
2021/08/04 08:37:18;;;;;;;1.48;1.33;;;20.40;99.90;;;;;;5033359;28;20018;-71
2021/08/04 08:39:43;;;;;;;1.98;1.42;;;19.90;99.90;;;;;;5032711;28;20026;-72
2021/08/04 08:42:09;;;;;;;2.40;1.25;;;19.70;99.90;;;;;;5032797;28;20032;-71
2021/08/04 08:44:35;;;;;;;2.28;1.33;;;19.60;99.90;;;;;;5032403;28;20370;-72
2021/08/04 08:47:06;;;;;;;1.50;1.25;;;19.40;99.90;;;;;;5024877;28;20066;-71
2021/08/04 08:49:33;;;;;;;;;;;19.60;99.90;;;;;;5052942;28;20013;-71
2021/08/04 08:51:58;;;;;;;1.50;1.40;;;19.60;99.90;;;;;;5049610;28;20006;-71
2021/08/04 08:54:26;;;;;;;1.23;1.13;;;20.00;99.90;;;;;;5051996;28;20167;-70
2021/08/04 08:56:52;;;;;;;2.78;1.50;;;20.00;99.90;;;;;;5051631;28;20036;-71
2021/08/04 08:59:18;;;;;;;1.73;1.35;;;20.20;99.90;;;;;;5052539;28;20408;-72
2021/08/04 09:01:45;;;;;;;1.30;1.20;;;20.10;99.90;;;;;;5037798;28;20368;-72
2021/08/04 09:04:15;;;;;;;1.38;1.27;;;20.10;99.90;;;;;;5055845;28;20075;-70
2021/08/04 09:06:43;;;;;;;3.72;1.20;;;20.70;99.90;;;;;;5056304;28;20380;-71
2021/08/04 09:09:19;;;;;;;1.70;1.60;;;21.20;99.90;;;;;;5039400;28;20376;-72
2021/08/04 09:11:46;;;;;;;2.72;1.35;;;21.50;99.90;;;;;;5056711;28;20029;-73
2021/08/04 09:14:12;;;;;;;1.60;1.50;;;21.80;99.90;;;;;;5057542;28;20041;-70
2021/08/04 09:16:39;;;;;;;2.85;1.58;;;21.90;99.90;;;;;;5041972;28;20021;-71
2021/08/04 09:19:19;;;;;;;1.77;1.42;;;22.20;99.90;;;;;;5042174;28;20045;-71
2021/08/04 09:22:29;;;;;;;2.60;1.35;;;22.20;99.90;;;;;;5038936;28;20021;-72
2021/08/04 09:25:03;;;;;;;1.35;1.17;;;22.10;99.90;;;;;;5033725;28;20052;-70
2021/08/04 09:27:47;;;;;;;5.05;1.70;;;22.30;99.90;;;;;;5034423;28;20021;-70
2021/08/04 09:30:16;;;;;;;3.28;1.33;;;21.90;99.90;;;;;;5035737;28;20404;-71
2021/08/04 09:32:42;;;;;;;3.13;1.10;;;22.20;99.90;;;;;;5035691;28;20025;-71
2021/08/04 09:35:28;;;;;;;1.67;1.50;;;22.00;99.90;;;;;;5035184;28;20067;-70
2021/08/04 09:38:06;;;;;;;1.73;1.20;;;22.00;99.90;;;;;;5035251;28;20033;-71
2021/08/04 09:40:31;;;;;;;2.47;2.25;;;21.70;99.90;;;;;;5035398;28;20026;-71
2021/08/04 09:42:57;;;;;;;1.40;1.30;;;21.70;99.90;;;;;;5035882;28;20046;-70
2021/08/04 09:45:37;;;;;;;1.52;1.42;;;22.10;99.90;;;;;;5035076;28;20056;-71
2021/08/04 09:48:09;;;;;;;2.45;1.50;;;21.30;99.90;;;;;;5034620;28;20029;-71
2021/08/04 09:50:49;;;;;;;3.40;1.23;;;20.90;99.90;;;;;;5054560;28;20078;-73
2021/08/04 09:53:20;;;;;;;2.03;1.60;;;21.30;99.90;;;;;;5037082;28;20028;-71
2021/08/04 09:56:09;;;;;;;1.95;1.60;;;21.30;99.90;;;;;;5055029;28;20032;-71
2021/08/04 09:58:37;;;;;;;1.70;1.60;;;21.50;99.90;;;;;;5054931;28;20515;-72
2021/08/04 10:01:03;;;;;;;2.15;1.20;;;21.50;99.90;;;;;;5054604;28;20476;-72
2021/08/04 10:03:30;;;;;;;3.28;1.67;;;20.90;99.90;;;;;;5055383;28;20035;-73
2021/08/04 10:05:59;;;;;;;1.95;1.77;;;20.80;99.90;;;;;;5054785;28;20099;-72
2021/08/04 10:08:25;;;;;;;1.48;1.38;;;20.60;99.90;;;;;;5055415;28;20468;-72
2021/08/04 10:10:54;;;;;;;2.65;1.30;;;20.50;99.90;;;;;;5036467;28;20120;-70
2021/08/04 10:13:23;;;;;;;2.00;1.23;;;20.40;99.90;;;;;;5054677;28;20489;-70
2021/08/04 10:15:54;;;;;;;2.13;1.50;;;20.40;99.90;;;;;;5037008;28;20029;-72
2021/08/04 10:18:22;;;;;;;1.70;1.58;;;20.80;99.90;;;;;;5040537;28;20021;-71
2021/08/04 10:20:51;;;;;;;3.05;1.42;;;21.20;99.90;;;;;;5034795;28;20382;-71
2021/08/04 10:23:19;;;;;;;1.92;1.73;;;21.30;99.90;;;;;;5034251;28;20112;-71
2021/08/04 10:25:45;;;;;;;2.53;1.67;;;21.20;99.90;;;;;;5034354;28;20025;-72
2021/08/04 10:28:12;;;;;;;1.65;1.42;;;21.10;99.90;;;;;;5034154;28;20091;-72
2021/08/04 10:30:38;;;;;;;2.75;1.55;;;21.00;99.90;;;;;;5033985;28;20030;-70
2021/08/04 10:33:07;;;;;;;3.08;1.67;;;21.00;99.90;;;;;;5033958;28;20036;-71
2021/08/04 10:35:36;;;;;;;2.97;1.50;;;21.00;99.90;;;;;;5033433;28;20019;-71
2021/08/04 10:38:03;;;;;;;1.50;1.40;;;20.60;99.90;;;;;;5033850;28;20030;-71
2021/08/04 10:40:29;;;;;;;3.22;1.98;;;20.70;99.90;;;;;;5034017;28;20021;-71
2021/08/04 10:42:54;;;;;;;2.50;1.40;;;20.90;99.90;;;;;;5034321;28;20032;-70
2021/08/04 10:45:23;;;;;;;2.58;1.88;;;20.90;99.90;;;;;;5033838;28;20018;-71
2021/08/04 10:47:54;;;;;;;2.28;1.50;;;20.30;99.90;;;;;;5033628;28;20098;-71
2021/08/04 10:50:20;;;;;;;2.30;1.67;;;20.30;99.90;;;;;;5050792;28;20047;-72
2021/08/04 10:53:03;;;;;;;1.65;1.55;;;20.80;99.90;;;;;;5053023;28;20033;-72
2021/08/04 10:55:49;;;;;;;2.08;1.50;;;21.00;99.90;;;;;;5052968;28;20404;-72
2021/08/04 10:58:15;;;;;;;1.88;1.50;;;21.20;99.90;;;;;;5053277;28;20380;-71
2021/08/04 11:00:41;;;;;;;2.53;1.65;;;21.50;99.90;;;;;;5035447;28;20111;-71
2021/08/04 11:03:40;;;;;;;1.73;1.60;;;21.80;99.90;;;;;;5054021;28;20056;-71
2021/08/04 11:06:09;;;;;;;2.55;1.40;;;22.50;99.90;;;;;;5054256;28;20405;-72
2021/08/04 11:08:35;;;;;;;2.92;1.60;;;22.90;99.90;;;;;;5054168;28;20029;-71
2021/08/04 11:11:01;;;;;;;2.05;1.60;;;23.50;99.20;;;;;;5036817;28;20032;-72
2021/08/04 11:13:49;;;;;;;3.78;1.70;;;23.20;99.70;;;;;;5059387;28;20392;-70
2021/08/04 11:16:28;;;;;;;2.67;1.40;;;23.40;99.30;;;;;;5043898;28;20115;-72
2021/08/04 11:19:08;;;;;;;1.83;1.63;;;22.70;99.90;;;;;;5054161;28;20409;-72
2021/08/04 11:21:35;;;;;;;1.65;1.33;;;22.40;99.90;;;;;;5053072;28;20089;-72
2021/08/04 11:24:01;;;;;;;2.17;1.98;;;23.00;99.90;;;;;;5053350;28;20100;-72
2021/08/04 11:26:38;;;;;;;2.53;1.38;;;22.90;99.40;;;;;;5037199;28;20033;-71
2021/08/04 11:29:09;;;;;;;2.45;1.65;;;21.90;99.90;;;;;;5055194;28;20056;-71
2021/08/04 11:31:35;;;;;;;2.75;1.90;;;22.30;99.90;;;;;;5056080;28;20057;-71
2021/08/04 11:34:30;;;;;;;2.35;1.45;;;22.70;99.90;;;;;;5052589;28;20131;-71
2021/08/04 11:37:00;;;;;;;3.58;1.48;;;22.50;99.90;;;;;;5052707;28;20052;-73
2021/08/04 11:39:26;;;;;;;1.25;1.05;;;22.20;99.90;;;;;;5053596;28;20017;-71
2021/08/04 11:41:51;;;;;;;2.10;1.20;;;21.90;99.90;;;;;;5056420;28;20025;-73
2021/08/04 11:44:23;;;;;;;3.20;1.40;;;21.80;99.90;;;;;;5054151;28;20022;-71
2021/08/04 11:47:06;;;;;;;2.08;1.50;;;22.70;99.90;;;;;;5054459;28;20032;-73
2021/08/04 11:49:37;;;;;;;1.35;1.20;;;23.30;98.60;;;;;;5055908;28;20021;-71
2021/08/04 11:52:07;;;;;;;3.15;1.50;;;22.90;99.00;;;;;;5052095;28;20029;-72
2021/08/04 11:54:36;;;;;;;1.47;1.20;;;23.20;99.10;;;;;;5052228;28;20028;-72
2021/08/04 11:57:03;;;;;;;1.52;1.30;;;22.90;99.20;;;;;;5034262;28;20132;-70
2021/08/04 11:59:29;;;;;;;2.38;1.40;;;22.60;99.80;;;;;;5052271;28;20048;-72
2021/08/04 12:01:57;;;;;;;2.08;1.50;;;22.60;99.20;;;;;;5034620;28;20074;-72
2021/08/04 12:04:22;;;;;;;1.80;1.70;;;22.50;99.90;;;;;;5052175;28;20131;-72
2021/08/04 12:07:07;;;;;;;2.90;1.80;;;22.50;99.90;;;;;;5052598;28;20053;-71
2021/08/04 12:09:35;;;;;;;2.17;1.25;;;22.50;99.50;;;;;;5052913;28;20108;-72
2021/08/04 12:12:06;;;;;;;2.20;1.20;;;22.70;99.60;;;;;;5053176;28;20040;-70
2021/08/04 12:14:33;;;;;;;2.45;1.00;;;23.40;98.30;;;;;;5051935;28;20051;-71
2021/08/04 12:17:01;;;;;;;1.58;1.35;;;23.50;98.40;;;;;;5051179;28;20388;-72
2021/08/04 12:19:26;;;;;;;3.35;1.73;;;23.50;98.70;;;;;;5057908;28;20013;-71
2021/08/04 12:21:52;;;;;;;2.63;1.55;;;23.90;97.90;;;;;;5043760;28;20032;-70
2021/08/04 12:24:17;;;;;;;1.75;1.50;;;23.20;97.80;;;;;;5053875;28;20025;-71
2021/08/04 12:26:47;;;;;;;3.17;1.30;;;22.90;98.80;;;;;;5052541;28;20096;-72
2021/08/04 12:29:25;;;;;;;1.30;1.17;;;22.70;99.20;;;;;;5052680;28;20036;-72
2021/08/04 12:32:04;;;;;;;4.57;1.23;;;22.70;98.80;;;;;;5051834;28;20029;-72
2021/08/04 12:34:31;;;;;;;1.20;0.90;;;22.90;99.40;;;;;;5053296;28;20033;-72
2021/08/04 12:36:59;;;;;;;2.55;1.23;;;22.90;98.90;;;;;;5055438;28;20051;-71
2021/08/04 12:39:30;;;;;;;2.88;1.52;;;22.80;98.80;;;;;;5055316;28;20500;-72
2021/08/04 12:41:55;;;;;;;1.30;1.10;;;22.60;99.00;;;;;;5055781;28;20029;-73
2021/08/04 12:44:23;;;;;;;1.25;1.15;;;22.80;98.70;;;;;;5055338;28;20025;-71
2021/08/04 12:46:48;;;;;;;3.28;1.00;;;23.80;97.30;;;;;;5055812;28;20199;-71
2021/08/04 12:49:17;;;;;;;1.38;1.27;;;24.40;96.20;;;;;;5047494;28;20449;-72
2021/08/04 12:51:55;;;;;;;1.25;1.00;;;24.30;96.10;;;;;;5035877;28;20036;-72
2021/08/04 12:54:47;;;;;;;1.85;1.45;;;24.40;96.20;;;;;;5017993;28;20037;-72